createdAt,value
2022-09-17T00:01:24.903Z,94489.69
2022-09-17T00:03:56.296Z,94460.88
2022-09-17T00:06:25.344Z,94476.00
2022-09-17T00:08:54.598Z,94477.56
2022-09-17T00:11:25.266Z,94477.94
2022-09-17T00:13:54.063Z,94469.00
2022-09-17T00:16:28.563Z,94458.09
2022-09-17T00:18:58.504Z,94469.41
2022-09-17T00:21:26.771Z,94448.38
2022-09-17T00:23:56.342Z,94434.00
2022-09-17T00:26:24.303Z,94460.91
2022-09-17T00:28:53.355Z,94460.09
2022-09-17T00:31:21.914Z,94444.19
2022-09-17T00:33:50.333Z,94427.50
2022-09-17T00:36:20.642Z,94459.34
2022-09-17T00:38:50.816Z,94424.78
2022-09-17T00:41:19.161Z,94466.38
2022-09-17T00:43:49.373Z,94474.91
2022-09-17T00:46:31.603Z,94463.59
2022-09-17T00:49:02.131Z,94452.75
2022-09-17T00:51:35.842Z,94474.53
2022-09-17T00:54:07.844Z,94452.38
2022-09-17T00:56:38.151Z,94483.09
2022-09-17T00:59:06.514Z,94483.88
2022-09-17T01:01:34.395Z,94489.31
2022-09-17T01:04:02.355Z,94483.50
2022-09-17T01:06:36.121Z,94452.38
2022-09-17T01:09:20.605Z,94481.16
2022-09-17T01:12:01.555Z,94485.88
2022-09-17T01:14:46.327Z,94477.31
2022-09-17T01:17:21.323Z,94464.06
2022-09-17T01:20:22.551Z,94441.50
2022-09-17T01:23:06.969Z,94432.16
2022-09-17T01:25:47.897Z,94377.34
2022-09-17T01:28:35.356Z,94423.94
2022-09-17T01:31:15.831Z,94464.41
2022-09-17T01:33:54.515Z,94352.06
2022-09-17T01:36:35.651Z,94419.69
2022-09-17T01:39:10.216Z,94453.94
2022-09-17T01:41:45.027Z,94453.16
2022-09-17T01:44:18.748Z,94428.69
2022-09-17T01:46:54.478Z,94444.25
2022-09-17T01:49:25.477Z,94436.06
2022-09-17T01:51:55.855Z,94416.25
2022-09-17T01:54:26.862Z,94382.41
2022-09-17T01:57:01.687Z,94471.47
2022-09-17T01:59:34.723Z,94466.41
2022-09-17T02:02:09.800Z,94450.44
2022-09-17T02:04:43.724Z,94416.19
2022-09-17T02:07:20.593Z,94441.84
2022-09-17T02:09:54.585Z,94408.44
2022-09-17T02:12:29.920Z,94388.16
2022-09-17T02:15:02.420Z,94394.03
2022-09-17T02:17:36.756Z,94364.03
2022-09-17T02:20:05.517Z,94347.34
2022-09-17T02:22:40.747Z,94340.38
2022-09-17T02:25:14.367Z,94315.88
2022-09-17T02:27:52.160Z,94342.72
2022-09-17T02:30:20.115Z,94321.31
2022-09-17T02:32:49.782Z,94339.59
2022-09-17T02:35:17.904Z,94352.03
2022-09-17T02:37:45.996Z,94198.25
2022-09-17T02:40:16.405Z,94347.31
2022-09-17T02:43:04.368Z,94351.91
2022-09-17T02:45:46.232Z,94347.97
2022-09-17T02:48:44.488Z,94299.81
2022-09-17T02:51:34.323Z,94341.81
2022-09-17T02:54:11.117Z,94322.41
2022-09-17T02:56:48.564Z,94324.41
2022-09-17T02:59:24.887Z,94279.75
2022-09-17T03:02:01.307Z,94322.88
2022-09-17T03:04:32.983Z,94277.78
2022-09-17T03:07:06.038Z,94243.22
2022-09-17T03:09:34.181Z,94316.22
2022-09-17T03:12:02.619Z,94317.78
2022-09-17T03:14:30.506Z,94317.78
2022-09-17T03:16:58.513Z,94329.47
2022-09-17T03:19:27.935Z,94325.59
2022-09-17T03:21:57.211Z,94319.34
2022-09-17T03:24:25.049Z,94304.13
2022-09-17T03:26:52.934Z,94295.84
2022-09-17T03:29:20.817Z,94297.03
2022-09-17T03:31:48.759Z,94306.00
2022-09-17T03:34:16.628Z,94267.25
2022-09-17T03:36:44.594Z,94290.53
2022-09-17T03:39:14.230Z,94258.72
2022-09-17T03:41:42.081Z,94283.56
2022-09-17T03:44:10.527Z,94278.13
2022-09-17T03:46:39.008Z,94210.59
2022-09-17T03:49:06.863Z,94286.59
2022-09-17T03:51:34.694Z,94288.19
2022-09-17T03:54:03.125Z,94271.81
2022-09-17T03:56:32.314Z,94258.19
2022-09-17T03:59:00.413Z,94286.63
2022-09-17T04:01:29.431Z,94294.31
2022-09-17T04:03:57.425Z,94293.50
2022-09-17T04:06:25.408Z,94304.41
2022-09-17T04:08:53.666Z,94304.38
2022-09-17T04:11:21.659Z,94310.16
2022-09-17T04:13:50.926Z,94304.34
2022-09-17T04:16:18.836Z,94305.53
2022-09-17T04:18:46.723Z,94327.63
2022-09-17T04:21:14.582Z,94349.78
2022-09-17T04:23:42.441Z,94350.19
2022-09-17T04:26:10.731Z,94369.97
2022-09-17T04:28:38.586Z,94376.53
2022-09-17T04:31:08.019Z,94380.88
2022-09-17T04:33:37.536Z,94388.69
2022-09-17T04:36:05.582Z,94408.06
2022-09-17T04:38:33.544Z,94415.91
2022-09-17T04:41:01.570Z,94404.31
2022-09-17T04:43:29.419Z,94408.59
2022-09-17T04:45:57.265Z,94438.97
2022-09-17T04:48:26.611Z,94450.69
2022-09-17T04:50:54.440Z,94439.81
2022-09-17T04:53:22.304Z,94453.06
2022-09-17T04:55:50.142Z,94472.97
2022-09-17T04:58:18.286Z,94485.81
2022-09-17T05:00:46.183Z,94476.53
2022-09-17T05:03:14.028Z,94483.50
2022-09-17T05:05:43.301Z,94482.72
2022-09-17T05:08:11.871Z,94471.06
2022-09-17T05:10:39.741Z,94471.44
2022-09-17T05:13:07.620Z,94448.06
2022-09-17T05:15:35.545Z,94454.66
2022-09-17T05:18:03.371Z,94451.94
2022-09-17T05:20:31.217Z,94451.53
2022-09-17T05:23:00.472Z,94438.28
2022-09-17T05:25:28.325Z,94429.75
2022-09-17T05:27:56.323Z,94425.44
2022-09-17T05:30:24.806Z,94412.97
2022-09-17T05:33:00.180Z,94410.25
2022-09-17T05:35:28.240Z,94428.19
2022-09-17T05:38:00.853Z,94435.94
2022-09-17T05:40:29.416Z,94426.59
2022-09-17T05:42:59.655Z,94430.13
2022-09-17T05:45:27.511Z,94440.59
2022-09-17T05:47:59.092Z,94445.66
2022-09-17T05:50:28.272Z,94441.81
2022-09-17T05:52:56.521Z,94453.06
2022-09-17T05:55:27.817Z,94452.25
2022-09-17T05:57:55.744Z,94449.94
2022-09-17T06:00:23.614Z,94446.13
2022-09-17T06:02:56.191Z,94453.13
2022-09-17T06:05:24.052Z,94451.97
2022-09-17T06:07:52.610Z,94443.00
2022-09-17T06:10:20.491Z,94449.22
2022-09-17T06:12:49.700Z,94469.06
2022-09-17T06:15:17.649Z,94469.06
2022-09-17T06:17:45.516Z,94476.81
2022-09-17T06:20:13.358Z,94497.06
2022-09-17T06:22:41.202Z,94493.94
2022-09-17T06:25:09.568Z,94496.69
2022-09-17T06:27:37.612Z,94504.84
2022-09-17T06:30:08.559Z,94517.28
2022-09-17T06:32:36.446Z,94538.69
2022-09-17T06:35:07.069Z,94547.28
2022-09-17T06:37:40.331Z,94547.31
2022-09-17T06:40:10.027Z,94548.84
2022-09-17T06:42:37.957Z,94546.16
2022-09-17T06:45:10.186Z,94542.63
2022-09-17T06:47:40.036Z,94535.63
2022-09-17T06:50:08.432Z,94510.69
2022-09-17T06:52:36.280Z,94505.22
2022-09-17T06:55:05.446Z,94494.69
2022-09-17T06:57:33.285Z,94496.28
2022-09-17T07:00:01.125Z,94504.84
2022-09-17T07:02:30.361Z,94514.97
2022-09-17T07:04:58.254Z,94502.50
2022-09-17T07:07:26.091Z,94481.09
2022-09-17T07:09:54.232Z,94468.97
2022-09-17T07:12:22.167Z,94455.25
2022-09-17T07:14:50.360Z,94445.13
2022-09-17T07:17:18.234Z,94442.78
2022-09-17T07:19:47.453Z,94440.84
2022-09-17T07:22:15.417Z,94435.88
2022-09-17T07:24:43.294Z,94429.19
2022-09-17T07:27:11.160Z,94409.91
2022-09-17T07:29:41.390Z,94421.03
2022-09-17T07:32:09.221Z,94430.19
2022-09-17T07:34:37.743Z,94445.91
2022-09-17T07:37:06.926Z,94431.97
2022-09-17T07:39:34.955Z,94441.28
2022-09-17T07:42:03.647Z,94427.06
2022-09-17T07:44:31.621Z,94410.66
2022-09-17T07:46:59.548Z,94420.50
2022-09-17T07:49:27.585Z,94417.28
2022-09-17T07:51:55.818Z,94418.53
2022-09-17T07:54:25.218Z,94429.09
2022-09-17T07:56:53.093Z,94423.97
2022-09-17T07:59:21.661Z,94420.28
2022-09-17T08:01:50.119Z,94400.44
2022-09-17T08:04:18.104Z,94413.16
2022-09-17T08:06:48.421Z,94387.44
2022-09-17T08:09:17.781Z,94404.34
2022-09-17T08:12:02.408Z,94406.63
2022-09-17T08:14:30.307Z,94410.66
2022-09-17T08:16:58.419Z,94402.63
2022-09-17T08:19:26.248Z,94380.69
2022-09-17T08:21:54.087Z,94386.03
2022-09-17T08:24:22.029Z,94392.94
2022-09-17T08:26:51.783Z,94378.28
2022-09-17T08:29:19.621Z,94374.72
2022-09-17T08:31:47.573Z,94370.38
2022-09-17T08:34:15.499Z,94372.31
2022-09-17T08:36:43.375Z,94355.31
2022-09-17T08:39:12.288Z,94366.19
2022-09-17T08:41:59.041Z,94357.66
2022-09-17T08:44:31.689Z,94372.16
2022-09-17T08:47:04.114Z,94372.75
2022-09-17T08:49:36.034Z,94370.31
2022-09-17T08:52:31.551Z,94342.31
2022-09-17T08:55:06.436Z,94351.56
2022-09-17T08:57:42.933Z,94364.13
2022-09-17T09:00:14.968Z,94366.38
2022-09-17T09:03:00.994Z,94362.34
2022-09-17T09:05:33.806Z,94355.81
2022-09-17T09:08:07.736Z,94361.28
2022-09-17T09:10:46.002Z,94370.56
2022-09-17T09:13:19.493Z,94238.03
2022-09-17T09:15:53.140Z,94377.03
2022-09-17T09:18:23.147Z,94387.00
2022-09-17T09:20:53.661Z,94375.69
2022-09-17T09:23:28.474Z,94387.75
2022-09-17T09:26:03.199Z,94367.00
2022-09-17T09:28:43.228Z,94402.78
2022-09-17T09:31:22.376Z,94418.66
2022-09-17T09:33:52.026Z,94423.91
2022-09-17T09:36:21.908Z,94426.03
2022-09-17T09:38:57.786Z,94430.03
2022-09-17T09:41:32.794Z,94436.38
2022-09-17T09:44:05.601Z,94442.03
2022-09-17T09:46:55.613Z,94452.00
2022-09-17T09:49:34.383Z,94446.25
2022-09-17T09:52:15.556Z,94429.06
2022-09-17T09:54:59.481Z,94471.06
2022-09-17T09:57:39.137Z,94464.41
2022-09-17T10:00:28.975Z,94475.25
2022-09-17T10:03:03.089Z,94475.69
2022-09-17T10:05:31.833Z,94453.75
2022-09-17T10:08:00.141Z,94433.34
2022-09-17T10:10:28.037Z,94424.50
2022-09-17T10:13:08.574Z,94398.69
2022-09-17T10:15:38.166Z,94404.16
2022-09-17T10:18:14.449Z,94384.84
2022-09-17T10:20:57.023Z,94367.84
2022-09-17T10:23:27.500Z,94362.47
2022-09-17T10:25:56.659Z,94349.69
2022-09-17T10:28:34.047Z,94333.72
2022-09-17T10:31:10.168Z,94341.53
2022-09-17T10:33:41.925Z,94345.09
2022-09-17T10:36:14.739Z,94364.19
2022-09-17T10:38:44.073Z,94359.50
2022-09-17T10:41:21.789Z,94350.13
2022-09-17T10:43:50.826Z,94354.09
2022-09-17T10:46:27.540Z,94335.75
2022-09-17T10:49:08.213Z,94332.28
2022-09-17T10:51:36.272Z,94338.06
2022-09-17T10:54:16.374Z,94322.06
2022-09-17T10:56:48.881Z,94328.53
2022-09-17T10:59:41.349Z,94308.66
2022-09-17T11:02:35.738Z,94315.50
2022-09-17T11:05:20.472Z,94327.13
2022-09-17T11:07:54.769Z,94313.75
2022-09-17T11:10:31.123Z,94322.72
2022-09-17T11:13:13.981Z,94319.13
2022-09-17T11:15:57.727Z,94341.66
2022-09-17T11:18:38.120Z,94326.31
2022-09-17T11:21:34.725Z,94324.09
2022-09-17T11:24:23.400Z,94366.78
2022-09-17T11:27:00.415Z,94335.47
2022-09-17T11:29:54.986Z,94363.09
2022-09-17T11:32:50.892Z,94353.75
2022-09-17T11:35:24.908Z,94365.72
2022-09-17T11:37:59.951Z,94353.28
2022-09-17T11:40:37.916Z,94362.44
2022-09-17T11:43:16.688Z,94358.50
2022-09-17T11:45:55.936Z,94346.50
2022-09-17T11:48:30.716Z,94344.91
2022-09-17T11:51:06.008Z,94339.44
2022-09-17T11:53:39.361Z,94327.72
2022-09-17T11:56:16.861Z,94310.59
2022-09-17T11:58:49.336Z,94320.47
2022-09-17T12:01:23.406Z,94316.88
2022-09-17T12:03:56.618Z,94320.09
2022-09-17T12:06:37.152Z,94316.09
2022-09-17T12:09:13.665Z,94321.56
2022-09-17T12:11:48.330Z,94328.50
2022-09-17T12:14:23.510Z,94305.31
2022-09-17T12:16:56.409Z,94311.63
2022-09-17T12:19:29.861Z,94300.03
2022-09-17T12:22:03.071Z,94304.03
2022-09-17T12:24:32.373Z,94308.03
2022-09-17T12:27:10.779Z,94300.31
2022-09-17T12:30:02.277Z,94303.44
2022-09-17T12:33:09.863Z,94271.13
2022-09-17T12:36:07.032Z,94288.59
2022-09-17T12:39:11.421Z,94281.28
2022-09-17T12:41:47.569Z,94279.69
2022-09-17T12:44:39.407Z,94280.97
2022-09-17T12:47:30.908Z,94277.88
2022-09-17T12:50:08.587Z,94263.69
2022-09-17T12:52:54.083Z,94255.97
2022-09-17T12:55:33.157Z,94268.53
2022-09-17T12:58:09.357Z,94280.59
2022-09-17T13:00:43.743Z,94272.28
2022-09-17T13:03:20.911Z,94270.06
2022-09-17T13:06:10.073Z,94254.88
2022-09-17T13:08:58.051Z,94266.09
2022-09-17T13:11:57.327Z,94252.72
2022-09-17T13:14:34.141Z,94260.66
2022-09-17T13:17:08.535Z,94255.34
2022-09-17T13:19:42.856Z,94263.22
2022-09-17T13:22:18.048Z,94272.69
2022-09-17T13:24:48.197Z,94264.84
2022-09-17T13:27:25.770Z,94265.22
2022-09-17T13:30:03.305Z,94250.91
2022-09-17T13:32:49.821Z,94234.84
2022-09-17T13:35:49.926Z,94219.69
2022-09-17T13:38:21.659Z,94230.53
2022-09-17T13:40:51.912Z,94215.22
2022-09-17T13:43:27.767Z,94223.78
2022-09-17T13:46:15.580Z,94204.50
2022-09-17T13:48:51.221Z,94194.22
2022-09-17T13:51:49.502Z,94184.09
2022-09-17T13:54:19.749Z,94176.63
2022-09-17T13:56:51.646Z,94162.69
2022-09-17T13:59:24.358Z,94166.56
2022-09-17T14:02:04.122Z,94147.50
2022-09-17T14:04:57.283Z,94149.31
2022-09-17T14:07:49.101Z,94143.06
2022-09-17T14:10:41.575Z,94159.44
2022-09-17T14:13:29.973Z,94161.03
2022-09-17T14:16:05.365Z,94155.00
2022-09-17T14:18:58.860Z,94154.28
2022-09-17T14:21:33.128Z,94149.47
2022-09-17T14:24:03.870Z,94176.03
2022-09-17T14:26:58.164Z,94177.97
2022-09-17T14:29:43.762Z,94188.94
2022-09-17T14:32:20.825Z,94203.31
2022-09-17T14:34:49.355Z,94179.56
2022-09-17T14:37:21.406Z,94157.44
2022-09-17T14:39:50.373Z,94147.38
2022-09-17T14:42:22.932Z,94134.19
2022-09-17T14:44:59.320Z,94074.31
2022-09-17T14:47:28.639Z,94030.41
2022-09-17T14:49:56.616Z,94121.63
2022-09-17T14:52:30.436Z,94132.84
2022-09-17T14:55:12.183Z,94142.56
2022-09-17T14:57:40.190Z,94129.28
2022-09-17T15:00:18.532Z,94113.31
2022-09-17T15:02:52.601Z,94086.41
2022-09-17T15:05:24.176Z,94102.13
2022-09-17T15:07:52.061Z,94111.03
2022-09-17T15:10:22.006Z,94096.19
2022-09-17T15:12:51.467Z,94087.44
2022-09-17T15:15:23.316Z,94088.28
2022-09-17T15:17:53.162Z,94084.63
2022-09-17T15:20:23.316Z,94094.69
2022-09-17T15:22:57.460Z,94070.56
2022-09-17T15:25:30.197Z,94075.22
2022-09-17T15:28:02.113Z,94068.19
2022-09-17T15:30:30.091Z,94069.47
2022-09-17T15:33:00.892Z,94066.84
2022-09-17T15:35:30.652Z,94057.09
2022-09-17T15:38:21.680Z,94051.13
2022-09-17T15:40:48.704Z,94059.97
2022-09-17T15:43:21.744Z,94074.28
2022-09-17T15:45:49.640Z,94078.13
2022-09-17T15:48:37.090Z,94068.78
2022-09-17T15:51:07.135Z,94065.72
2022-09-17T15:53:36.291Z,94075.50
2022-09-17T15:56:08.309Z,94083.16
2022-09-17T15:58:52.344Z,94084.31
2022-09-17T16:01:55.790Z,94067.56
2022-09-17T16:04:30.551Z,94057.13
2022-09-17T16:07:28.037Z,94036.16
2022-09-17T16:09:56.692Z,94022.94
2022-09-17T16:12:26.856Z,94032.78
2022-09-17T16:14:56.798Z,94042.59
2022-09-17T16:17:43.253Z,94030.91
2022-09-17T16:20:18.005Z,94038.66
2022-09-17T16:22:47.991Z,94039.03
2022-09-17T16:25:17.070Z,94020.88
2022-09-17T16:27:50.465Z,94034.19
2022-09-17T16:30:20.415Z,94020.66
2022-09-17T16:32:49.024Z,94027.31
2022-09-17T16:35:21.070Z,94019.13
2022-09-17T16:37:53.377Z,93997.66
2022-09-17T16:40:22.982Z,93994.50
2022-09-17T16:42:51.008Z,93991.00
2022-09-17T16:45:18.898Z,93975.91
2022-09-17T16:47:47.061Z,93979.50
2022-09-17T16:50:16.801Z,93987.38
2022-09-17T16:52:46.615Z,93984.16
2022-09-17T16:55:16.791Z,93989.16
2022-09-17T16:57:45.215Z,93984.88
2022-09-17T17:00:16.484Z,93984.44
2022-09-17T17:02:44.819Z,93981.38
2022-09-17T17:05:12.922Z,93987.88
2022-09-17T17:07:40.845Z,93997.19
2022-09-17T17:10:11.227Z,94011.91
2022-09-17T17:12:39.534Z,94022.38
2022-09-17T17:15:09.246Z,94037.56
2022-09-17T17:17:37.996Z,94034.09
2022-09-17T17:20:09.105Z,94024.03
2022-09-17T17:22:38.080Z,94030.19
2022-09-17T17:25:07.173Z,94043.88
2022-09-17T17:27:36.608Z,94044.31
2022-09-17T17:30:06.688Z,94040.38
2022-09-17T17:32:35.180Z,94014.72
2022-09-17T17:35:03.440Z,94014.06
2022-09-17T17:37:31.400Z,94000.91
2022-09-17T17:39:59.682Z,94025.25
2022-09-17T17:42:27.689Z,94040.38
2022-09-17T17:44:56.932Z,94053.56
2022-09-17T17:47:24.794Z,94050.06
2022-09-17T17:49:52.700Z,94055.53
2022-09-17T17:52:20.533Z,94071.56
2022-09-17T17:54:48.604Z,94070.06
2022-09-17T17:57:16.488Z,94081.09
2022-09-17T17:59:44.332Z,94078.03
2022-09-17T18:02:13.727Z,94079.63
2022-09-17T18:04:41.726Z,94086.53
2022-09-17T18:07:09.579Z,94078.84
2022-09-17T18:09:37.455Z,94076.63
2022-09-17T18:12:05.669Z,94059.88
2022-09-17T18:14:33.520Z,94060.97
2022-09-17T18:17:01.397Z,94064.06
2022-09-17T18:19:30.608Z,94067.63
2022-09-17T18:21:58.467Z,94070.34
2022-09-17T18:24:26.363Z,94080.09
2022-09-17T18:26:54.243Z,94074.28
2022-09-17T18:29:22.373Z,94072.28
2022-09-17T18:31:50.274Z,94075.06
2022-09-17T18:34:18.457Z,94074.31
2022-09-17T18:36:51.180Z,94068.06
2022-09-17T18:39:56.766Z,94079.28
2022-09-17T18:42:09.145Z,94072.22
2022-09-17T18:44:37.085Z,94072.59
2022-09-17T18:47:05.001Z,94070.69
2022-09-17T18:49:32.843Z,94069.50
2022-09-17T18:52:02.235Z,94060.97
2022-09-17T18:54:30.067Z,94057.16
2022-09-17T18:56:57.985Z,94055.69
2022-09-17T18:59:25.932Z,94060.66
2022-09-17T19:01:53.803Z,94065.63
2022-09-17T19:04:22.977Z,94070.69
2022-09-17T19:06:50.891Z,94075.38
2022-09-17T19:09:21.268Z,94072.66
2022-09-17T19:11:49.332Z,94056.72
2022-09-17T19:14:17.207Z,94062.19
2022-09-17T19:16:45.072Z,94060.97
2022-09-17T19:19:12.893Z,94048.50
2022-09-17T19:21:40.794Z,94057.88
2022-09-17T19:24:09.392Z,94074.22
2022-09-17T19:26:39.644Z,94062.97
2022-09-17T19:29:09.051Z,94061.94
2022-09-17T19:31:37.007Z,94070.09
2022-09-17T19:34:04.973Z,94067.00
2022-09-17T19:36:32.918Z,94073.69
2022-09-17T19:39:00.766Z,94056.13
2022-09-17T19:41:28.785Z,94053.50
2022-09-17T19:43:58.104Z,94058.97
2022-09-17T19:46:27.639Z,94076.00
2022-09-17T19:48:57.316Z,94070.53
2022-09-17T19:51:28.305Z,94055.09
2022-09-17T19:53:56.867Z,94065.59
2022-09-17T19:56:26.420Z,94058.97
2022-09-17T19:58:54.691Z,94046.94
2022-09-17T20:01:24.048Z,94044.53
2022-09-17T20:03:53.166Z,94036.00
2022-09-17T20:06:23.345Z,94038.81
2022-09-17T20:08:52.555Z,94034.94
2022-09-17T20:11:22.214Z,94026.78
2022-09-17T20:13:50.457Z,94014.34
2022-09-17T20:16:20.610Z,94012.03
2022-09-17T20:18:50.687Z,94019.44
2022-09-17T20:21:20.816Z,94007.38
2022-09-17T20:23:49.295Z,94006.22
2022-09-17T20:26:17.905Z,94016.31
2022-09-17T20:28:46.705Z,94010.91
2022-09-17T20:31:16.279Z,94007.41
2022-09-17T20:33:44.534Z,94020.25
2022-09-17T20:36:15.199Z,94023.38
2022-09-17T20:41:32.657Z,94032.28
2022-09-17T20:44:00.586Z,94027.19
2022-09-17T20:46:29.688Z,94025.63
2022-09-17T20:48:58.173Z,94033.78
2022-09-17T20:51:29.720Z,94038.06
2022-09-17T20:53:58.169Z,94038.03
2022-09-17T20:56:27.920Z,94038.78
2022-09-17T20:59:03.444Z,94031.84
2022-09-17T21:01:34.251Z,94022.16
2022-09-17T21:04:04.404Z,94030.31
2022-09-17T21:06:35.488Z,94015.88
2022-09-17T21:09:04.326Z,94014.00
2022-09-17T21:11:32.373Z,94006.25
2022-09-17T21:14:01.569Z,94011.28
2022-09-17T21:16:29.907Z,94019.44
2022-09-17T21:18:59.332Z,94012.38
2022-09-17T21:21:27.373Z,94013.16
2022-09-17T21:24:01.074Z,94009.31
2022-09-17T21:26:29.444Z,93998.47
2022-09-17T21:28:58.278Z,93994.28
2022-09-17T21:31:32.080Z,93976.88
2022-09-17T21:34:02.526Z,93989.63
2022-09-17T21:36:31.944Z,93987.28
2022-09-17T21:39:03.317Z,93986.91
2022-09-17T21:41:32.355Z,94003.19
2022-09-17T21:44:00.425Z,94005.13
2022-09-17T21:46:30.280Z,94005.13
2022-09-17T21:49:02.234Z,94014.06
2022-09-17T21:51:31.983Z,94020.25
2022-09-17T21:54:02.761Z,93994.72
2022-09-17T21:56:31.493Z,94019.47
2022-09-17T21:59:01.901Z,94005.47
2022-09-17T22:01:32.670Z,94014.78
2022-09-17T22:04:02.099Z,94012.03
2022-09-17T22:06:31.919Z,94011.66
2022-09-17T22:09:02.907Z,94019.44
2022-09-17T22:11:32.781Z,94012.50
2022-09-17T22:14:05.124Z,94013.66
2022-09-17T22:16:35.999Z,94015.97
2022-09-17T22:19:05.580Z,94006.25
2022-09-17T22:21:36.054Z,94023.34
2022-09-17T22:24:06.688Z,94007.09
2022-09-17T22:26:36.539Z,94033.13
2022-09-17T22:29:06.677Z,94030.44
2022-09-17T22:31:34.930Z,94030.03
2022-09-17T22:34:03.185Z,94021.47
2022-09-17T22:36:31.071Z,94028.13
2022-09-17T22:38:59.685Z,94038.59
2022-09-17T22:41:30.751Z,94032.03
2022-09-17T22:44:00.738Z,94006.03
2022-09-17T22:46:29.844Z,94027.38
2022-09-17T22:48:58.583Z,94028.53
2022-09-17T22:51:27.954Z,94013.78
2022-09-17T22:53:55.891Z,94008.38
2022-09-17T22:56:24.396Z,94007.16
2022-09-17T22:58:53.807Z,94014.09
2022-09-17T23:01:24.574Z,94032.75
2022-09-17T23:03:53.456Z,94037.47
2022-09-17T23:06:23.825Z,94031.13
2022-09-17T23:08:52.183Z,94026.84
2022-09-17T23:11:22.012Z,94029.56
2022-09-17T23:13:50.973Z,94031.50
2022-09-17T23:16:21.158Z,94045.09
2022-09-17T23:18:49.057Z,94041.16
2022-09-17T23:21:18.821Z,94036.47
2022-09-17T23:23:49.220Z,94033.34
2022-09-17T23:26:18.928Z,94037.59
2022-09-17T23:28:47.696Z,94042.66
2022-09-17T23:31:17.723Z,94038.06
2022-09-17T23:33:47.721Z,94035.34
2022-09-17T23:36:19.276Z,94042.66
2022-09-17T23:38:48.458Z,94024.75
2022-09-17T23:41:18.334Z,94058.19
2022-09-17T23:43:48.287Z,94040.28
2022-09-17T23:46:16.816Z,94055.09
2022-09-17T23:48:46.367Z,94052.72
2022-09-17T23:51:15.013Z,94065.88
2022-09-17T23:53:42.969Z,94074.38
2022-09-17T23:56:13.247Z,94065.84
2022-09-17T23:58:41.547Z,94035.72
